Winston Salem, North Carolina
Current Conditions -  °F | °C
As of 4:54 AM on Tuesday 27 Jan 2015 (Local Time) from KINT Reporting Station
Clear Clear  
Wind Chill: 21°   Ceiling: Unl
Heat Index: 29°   Visibility: 10mi
Dew Point: 17°   Wind: 8mph
Humidity: 61%   Direction: 320°NW
Pressure: 29.77"   Gusts: NA
Location:  36.1112°N, 80.1999°W
Report Text: KINT 270954Z AUTO 32007KT 10SM CLR M02/M08 A2977 RMK AO2 SLP083 T10171083
Loading
Personal Weather Stations






























Interactive Weather Map New forecast layout! Learn more

10-Day Weather Forecast

Advertisements
Track Severe Weather on mobile